TAP1689 LPPT-LPMA
Flight info
| Callsign | TAP1689 |
|---|---|
| Flight time | N/A |
| Altitude | 37000 |
| Route | ULVOT DCT GALPA DCT RAKUN |
| Aircraft | A339/H-SADE1E2E3GHIJ3J5M1P2RWXY/LB2D1 |
Departure
| Time | 2026-05-07 11:13 |
|---|---|
| Airport | Lisbon Humberto Delgado Airport (LPPT) |
Arrival
| Time | N/A |
|---|---|
| Airport | Cristiano Ronaldo International Airport (LPMA) |
| Time | Latitude | Longitude | Altitude | Speed | Heading |
|---|---|---|---|---|---|
| 2026-05-07 10:56 | 38.77023 | -9.13118 | 338 ft | 0 kts | 73° |
| 2026-05-07 11:05 | 38.77019 | -9.13133 | 361 ft | 2 kts | 79° |
| 2026-05-07 11:05 | 38.77015 | -9.13149 | 361 ft | 2 kts | 106° |
| 2026-05-07 11:05 | 38.77018 | -9.13164 | 360 ft | 2 kts | 137° |
| 2026-05-07 11:06 | 38.77026 | -9.13174 | 360 ft | 2 kts | 152° |
| 2026-05-07 11:06 | 38.77035 | -9.13180 | 362 ft | 2 kts | 159° |
| 2026-05-07 11:06 | 38.77043 | -9.13184 | 362 ft | 0 kts | 161° |
| 2026-05-07 11:08 | 38.77041 | -9.13183 | 353 ft | 1 kts | 161° |
| 2026-05-07 11:09 | 38.77011 | -9.13173 | 353 ft | 9 kts | 165° |
| 2026-05-07 11:09 | 38.76923 | -9.13148 | 359 ft | 16 kts | 168° |
| 2026-05-07 11:09 | 38.76811 | -9.13136 | 354 ft | 14 kts | 198° |
| 2026-05-07 11:09 | 38.76768 | -9.13245 | 358 ft | 15 kts | 255° |
| 2026-05-07 11:10 | 38.76729 | -9.13380 | 362 ft | 17 kts | 237° |
| 2026-05-07 11:10 | 38.76653 | -9.13510 | 360 ft | 19 kts | 247° |
| 2026-05-07 11:10 | 38.76619 | -9.13685 | 359 ft | 22 kts | 258° |
| 2026-05-07 11:10 | 38.76585 | -9.13883 | 360 ft | 24 kts | 258° |
| 2026-05-07 11:11 | 38.76515 | -9.14077 | 353 ft | 25 kts | 235° |
| 2026-05-07 11:11 | 38.76519 | -9.14246 | 358 ft | 12 kts | 293° |
| 2026-05-07 11:11 | 38.76556 | -9.14356 | 353 ft | 15 kts | 294° |
| 2026-05-07 11:11 | 38.76639 | -9.14390 | 352 ft | 12 kts | 15° |
| 2026-05-07 11:12 | 38.76653 | -9.14383 | 355 ft | 0 kts | 20° |
| 2026-05-07 11:12 | 38.76667 | -9.14377 | 349 ft | 19 kts | 20° |
| 2026-05-07 11:12 | 38.77338 | -9.14024 | 362 ft | 134 kts | 22° |
| 2026-05-07 11:12 | 38.78000 | -9.13662 | 368 ft | 177 kts | 21° |
| 2026-05-07 11:13 | 38.79233 | -9.12950 | 715 ft | 211 kts | 22° |
| 2026-05-07 11:13 | 38.80622 | -9.12104 | 1391 ft | 215 kts | 23° |
| 2026-05-07 11:13 | 38.81895 | -9.11280 | 2707 ft | 200 kts | 25° |
| 2026-05-07 11:13 | 38.83166 | -9.10410 | 3316 ft | 217 kts | 27° |
| 2026-05-07 11:14 | 38.84541 | -9.09414 | 3795 ft | 237 kts | 28° |
| 2026-05-07 11:14 | 38.86013 | -9.08294 | 4264 ft | 252 kts | 29° |
| 2026-05-07 11:14 | 38.87421 | -9.06905 | 4911 ft | 260 kts | 47° |
| 2026-05-07 11:14 | 38.88274 | -9.04842 | 5613 ft | 268 kts | 73° |
| 2026-05-07 11:15 | 38.88346 | -9.02450 | 6357 ft | 274 kts | 99° |
| 2026-05-07 11:15 | 38.87595 | -9.00189 | 7031 ft | 281 kts | 125° |
| 2026-05-07 11:15 | 38.86142 | -8.98519 | 7789 ft | 284 kts | 151° |
| 2026-05-07 11:15 | 38.84264 | -8.97791 | 8566 ft | 284 kts | 176° |
| 2026-05-07 11:16 | 38.82317 | -8.98155 | 9325 ft | 285 kts | 202° |
| 2026-05-07 11:16 | 38.80678 | -8.99556 | 10073 ft | 286 kts | 227° |
| 2026-05-07 11:16 | 38.79552 | -9.01723 | 10408 ft | 303 kts | 244° |
| 2026-05-07 11:16 | 38.78596 | -9.04224 | 10591 ft | 323 kts | 243° |
| 2026-05-07 11:17 | 38.77427 | -9.06759 | 10929 ft | 336 kts | 237° |
| 2026-05-07 11:17 | 38.76033 | -9.09171 | 11574 ft | 338 kts | 232° |
| 2026-05-07 11:17 | 38.74513 | -9.11487 | 12230 ft | 341 kts | 230° |
| 2026-05-07 11:17 | 38.72928 | -9.13762 | 12860 ft | 344 kts | 229° |
| 2026-05-07 11:18 | 38.71313 | -9.16035 | 13532 ft | 346 kts | 229° |
| 2026-05-07 11:18 | 38.69683 | -9.18327 | 14129 ft | 350 kts | 229° |
| 2026-05-07 11:18 | 38.68046 | -9.20634 | 14746 ft | 350 kts | 230° |
| 2026-05-07 11:18 | 38.66407 | -9.22956 | 15343 ft | 353 kts | 230° |
| 2026-05-07 11:19 | 38.64753 | -9.25302 | 15911 ft | 356 kts | 230° |
| 2026-05-07 11:19 | 38.63089 | -9.27658 | 16478 ft | 359 kts | 230° |
| 2026-05-07 11:19 | 38.61409 | -9.30038 | 17032 ft | 362 kts | 230° |
| 2026-05-07 11:19 | 38.59718 | -9.32435 | 17597 ft | 364 kts | 230° |
| 2026-05-07 11:20 | 38.58012 | -9.34854 | 18129 ft | 367 kts | 230° |
| 2026-05-07 11:20 | 38.56321 | -9.37251 | 18639 ft | 370 kts | 230° |
| 2026-05-07 11:20 | 38.54569 | -9.39732 | 19152 ft | 372 kts | 230° |
| 2026-05-07 11:20 | 38.52829 | -9.42193 | 19663 ft | 374 kts | 230° |
| 2026-05-07 11:21 | 38.51099 | -9.44636 | 20149 ft | 377 kts | 230° |
| 2026-05-07 11:21 | 38.49311 | -9.47160 | 20682 ft | 379 kts | 230° |
| 2026-05-07 11:21 | 38.47560 | -9.49627 | 21190 ft | 381 kts | 230° |
| 2026-05-07 11:21 | 38.45776 | -9.52141 | 21716 ft | 384 kts | 230° |
| 2026-05-07 11:22 | 38.43978 | -9.54671 | 22232 ft | 386 kts | 230° |
| 2026-05-07 11:22 | 38.42169 | -9.57215 | 22757 ft | 388 kts | 230° |
| 2026-05-07 11:22 | 38.40345 | -9.59778 | 23291 ft | 391 kts | 230° |
| 2026-05-07 11:22 | 38.38509 | -9.62356 | 23764 ft | 393 kts | 230° |
| 2026-05-07 11:23 | 38.36666 | -9.64942 | 24218 ft | 396 kts | 230° |
| 2026-05-07 11:23 | 38.34811 | -9.67542 | 24667 ft | 398 kts | 230° |
| 2026-05-07 11:23 | 38.32945 | -9.70156 | 25099 ft | 400 kts | 230° |
| 2026-05-07 11:23 | 38.31067 | -9.72785 | 25537 ft | 402 kts | 230° |
| 2026-05-07 11:24 | 38.29179 | -9.75426 | 25999 ft | 404 kts | 230° |
| 2026-05-07 11:24 | 38.27278 | -9.78083 | 26411 ft | 407 kts | 230° |
| 2026-05-07 11:24 | 38.25370 | -9.80747 | 26835 ft | 409 kts | 230° |
| 2026-05-07 11:24 | 38.23444 | -9.83435 | 27265 ft | 411 kts | 230° |
| 2026-05-07 11:25 | 38.21512 | -9.86128 | 27658 ft | 414 kts | 230° |
| 2026-05-07 11:25 | 38.19590 | -9.88806 | 28079 ft | 416 kts | 230° |
| 2026-05-07 11:25 | 38.17606 | -9.91568 | 28480 ft | 418 kts | 230° |
| 2026-05-07 11:25 | 38.15667 | -9.94265 | 28875 ft | 420 kts | 230° |
| 2026-05-07 11:26 | 38.13689 | -9.97014 | 29256 ft | 423 kts | 230° |
| 2026-05-07 11:26 | 38.11698 | -9.99777 | 29624 ft | 425 kts | 230° |
| 2026-05-07 11:26 | 38.09698 | -10.02553 | 30011 ft | 427 kts | 230° |
| 2026-05-07 11:26 | 38.07684 | -10.05345 | 30361 ft | 429 kts | 230° |
| 2026-05-07 11:27 | 38.05662 | -10.08145 | 30695 ft | 432 kts | 230° |
| 2026-05-07 11:27 | 38.03629 | -10.10958 | 31028 ft | 434 kts | 230° |
| 2026-05-07 11:27 | 38.01583 | -10.13786 | 31361 ft | 436 kts | 231° |
| 2026-05-07 11:27 | 37.99527 | -10.16625 | 31711 ft | 438 kts | 231° |
| 2026-05-07 11:28 | 37.97461 | -10.19476 | 32019 ft | 440 kts | 231° |
| 2026-05-07 11:28 | 37.95384 | -10.22339 | 32338 ft | 442 kts | 231° |
| 2026-05-07 11:28 | 37.93296 | -10.25217 | 32622 ft | 444 kts | 231° |
| 2026-05-07 11:28 | 37.91195 | -10.28107 | 32895 ft | 446 kts | 231° |
| 2026-05-07 11:29 | 37.89091 | -10.30999 | 33098 ft | 447 kts | 231° |
| 2026-05-07 11:29 | 37.86979 | -10.33902 | 33299 ft | 449 kts | 231° |
| 2026-05-07 11:29 | 37.84860 | -10.36811 | 33474 ft | 450 kts | 231° |
| 2026-05-07 11:29 | 37.82736 | -10.39723 | 33733 ft | 450 kts | 231° |
| 2026-05-07 11:30 | 37.80617 | -10.42626 | 33965 ft | 449 kts | 231° |
| 2026-05-07 11:30 | 37.78498 | -10.45525 | 34175 ft | 449 kts | 231° |
| 2026-05-07 11:30 | 37.76383 | -10.48417 | 34382 ft | 448 kts | 231° |
| 2026-05-07 11:30 | 37.74267 | -10.51309 | 34617 ft | 447 kts | 231° |
| 2026-05-07 11:31 | 37.72160 | -10.54185 | 34834 ft | 446 kts | 231° |
| 2026-05-07 11:31 | 37.70081 | -10.57021 | 35032 ft | 445 kts | 231° |
| 2026-05-07 11:31 | 37.67977 | -10.59889 | 35228 ft | 445 kts | 231° |
| 2026-05-07 11:31 | 37.65878 | -10.62748 | 35475 ft | 443 kts | 231° |
| 2026-05-07 11:32 | 37.61692 | -10.68440 | 35889 ft | 442 kts | 231° |
| 2026-05-07 11:32 | 37.59605 | -10.71275 | 36099 ft | 441 kts | 231° |
| 2026-05-07 11:32 | 37.57517 | -10.74107 | 36323 ft | 440 kts | 231° |
| 2026-05-07 11:33 | 37.55439 | -10.76925 | 36530 ft | 439 kts | 231° |
| 2026-05-07 11:33 | 37.53362 | -10.79737 | 36749 ft | 438 kts | 231° |
| 2026-05-07 11:33 | 37.51286 | -10.82547 | 36939 ft | 438 kts | 231° |
| 2026-05-07 11:34 | 37.47148 | -10.88139 | 36999 ft | 435 kts | 231° |
| 2026-05-07 11:34 | 37.43023 | -10.93707 | 37000 ft | 435 kts | 231° |
| 2026-05-07 11:35 | 37.38897 | -10.99263 | 36990 ft | 434 kts | 231° |
| 2026-05-07 11:35 | 37.34774 | -11.04808 | 36987 ft | 434 kts | 231° |
| 2026-05-07 11:36 | 37.30656 | -11.10334 | 36990 ft | 432 kts | 231° |
| 2026-05-07 11:36 | 37.26548 | -11.15838 | 36986 ft | 432 kts | 231° |
| 2026-05-07 11:37 | 37.22445 | -11.21327 | 36985 ft | 431 kts | 231° |
| 2026-05-07 11:37 | 37.18343 | -11.26806 | 36982 ft | 430 kts | 230° |
| 2026-05-07 11:38 | 37.14244 | -11.32270 | 36985 ft | 430 kts | 230° |
| 2026-05-07 11:38 | 37.10150 | -11.37720 | 36989 ft | 429 kts | 230° |
| 2026-05-07 11:39 | 37.06057 | -11.43159 | 36989 ft | 429 kts | 230° |
| 2026-05-07 11:39 | 37.01994 | -11.48548 | 36989 ft | 428 kts | 230° |
| 2026-05-07 11:40 | 36.97906 | -11.53961 | 36993 ft | 427 kts | 230° |
| 2026-05-07 11:40 | 36.93821 | -11.59362 | 36991 ft | 427 kts | 230° |
| 2026-05-07 11:41 | 36.89741 | -11.64747 | 36994 ft | 426 kts | 230° |
| 2026-05-07 11:41 | 36.85665 | -11.70117 | 36997 ft | 426 kts | 230° |